< < Back
Terminal Aerodrome Forecast


Current Version              Previous Versions:   1  2  3  4  5  6  7  8  9  

Terminal Aerodrome Forecast

880
FTUS44 KBMX 242339
TAFMGM
TAF
KMGM 242339Z 2500/2524 VRB03KT P6SM VCSH SCT050 BKN250
     FM250100 VRB02KT P6SM SCT250
     FM251600 08006KT P6SM SCT250=

Latest METAR

706
SAUS80 KWBC 260300 RRA
MTRMGM
METAR KMGM 260253Z 00000KT 10SM CLR 28/22 A3008 RMK AO2 SLP181 T02780222
50016


USA.gov is the U.S. government's official web portal to all federal, state and local government web resources and services.